createdAt,value
2023-11-27T00:01:06.010Z,24.38
2023-11-27T00:03:36.490Z,28.50
2023-11-27T00:06:09.326Z,29.48
2023-11-27T00:08:43.290Z,27.15
2023-11-27T00:11:12.456Z,25.13
2023-11-27T00:13:43.509Z,26.00
2023-11-27T00:16:16.770Z,26.55
2023-11-27T00:18:54.151Z,21.33
2023-11-27T00:21:29.320Z,26.90
2023-11-27T00:24:03.777Z,25.42
2023-11-27T00:26:37.938Z,25.00
2023-11-27T00:29:08.965Z,24.30
2023-11-27T00:31:47.661Z,23.63
2023-11-27T00:34:16.169Z,22.92
2023-11-27T00:36:49.241Z,24.00
2023-11-27T00:39:23.076Z,22.90
2023-11-27T00:41:54.299Z,20.92
2023-11-27T00:44:22.374Z,21.23
2023-11-27T00:46:53.091Z,22.48
2023-11-27T00:49:21.992Z,18.58
2023-11-27T00:52:06.766Z,18.40
2023-11-27T00:54:38.842Z,19.15
2023-11-27T00:57:07.332Z,18.90
2023-11-27T00:59:40.701Z,17.85
2023-11-27T01:02:09.694Z,16.20
2023-11-27T01:04:40.165Z,17.17
2023-11-27T01:07:12.784Z,17.90
2023-11-27T01:09:43.246Z,16.98
2023-11-27T01:12:13.375Z,17.42
2023-11-27T01:14:43.968Z,17.13
2023-11-27T01:17:15.335Z,16.75
2023-11-27T01:19:58.162Z,18.25
2023-11-27T01:22:32.030Z,17.00
2023-11-27T01:25:16.733Z,16.45
2023-11-27T01:27:50.668Z,16.77
2023-11-27T01:30:20.148Z,15.90
2023-11-27T01:32:56.247Z,15.23
2023-11-27T01:35:33.445Z,15.38
2023-11-27T01:38:14.376Z,13.75
2023-11-27T01:40:51.079Z,13.85
2023-11-27T01:43:19.707Z,11.77
2023-11-27T01:45:54.557Z,13.68
2023-11-27T01:48:24.212Z,12.95
2023-11-27T01:50:55.340Z,12.93
2023-11-27T01:53:25.295Z,12.38
2023-11-27T01:55:53.433Z,12.15
2023-11-27T01:58:21.768Z,12.55
2023-11-27T02:01:04.698Z,14.05
2023-11-27T02:03:35.606Z,14.30
2023-11-27T02:06:06.332Z,13.45
2023-11-27T02:08:39.220Z,13.25
2023-11-27T02:11:20.901Z,13.85
2023-11-27T02:13:52.241Z,12.48
2023-11-27T02:16:21.799Z,13.75
2023-11-27T02:18:53.139Z,13.80
2023-11-27T02:21:22.554Z,13.68
2023-11-27T02:23:53.264Z,14.15
2023-11-27T02:26:21.365Z,14.05
2023-11-27T02:28:51.474Z,15.98
2023-11-27T02:31:28.839Z,13.57
2023-11-27T02:34:05.664Z,14.23
2023-11-27T02:36:38.924Z,13.95
2023-11-27T02:41:53.087Z,13.57
2023-11-27T02:44:22.888Z,14.85
2023-11-27T02:46:54.230Z,14.57
2023-11-27T02:49:23.233Z,13.40
2023-11-27T02:52:12.614Z,13.43
2023-11-27T02:54:42.694Z,13.32
2023-11-27T02:57:17.585Z,12.90
2023-11-27T02:59:49.196Z,12.73
2023-11-27T03:02:21.992Z,12.13
2023-11-27T03:04:52.235Z,11.95
2023-11-27T03:07:26.434Z,12.52
2023-11-27T03:09:58.218Z,12.73
2023-11-27T03:12:31.406Z,12.80
2023-11-27T03:15:00.520Z,11.98
2023-11-27T03:17:31.882Z,11.77
2023-11-27T03:20:00.434Z,11.63
2023-11-27T03:22:28.539Z,11.77
2023-11-27T03:24:58.883Z,11.20
2023-11-27T03:27:46.193Z,11.95
2023-11-27T03:30:16.729Z,10.60
2023-11-27T03:32:47.757Z,12.23
2023-11-27T03:35:23.605Z,11.63
2023-11-27T03:37:52.803Z,11.98
2023-11-27T03:40:22.280Z,10.02
2023-11-27T03:42:57.224Z,10.95
2023-11-27T03:45:25.353Z,13.25
2023-11-27T03:47:53.869Z,10.60
2023-11-27T03:50:22.002Z,11.52
2023-11-27T03:52:50.044Z,10.30
2023-11-27T03:55:22.754Z,10.23
2023-11-27T03:57:59.548Z,11.40
2023-11-27T04:00:28.557Z,9.27
2023-11-27T04:03:18.130Z,11.18
2023-11-27T04:05:51.486Z,10.70
2023-11-27T04:08:19.641Z,10.45
2023-11-27T04:10:50.878Z,11.45
2023-11-27T04:13:19.876Z,9.85
2023-11-27T04:15:49.318Z,9.43
2023-11-27T04:18:18.775Z,8.20
2023-11-27T04:20:47.386Z,9.25
2023-11-27T04:23:15.540Z,9.60
2023-11-27T04:25:46.212Z,9.45
2023-11-27T04:28:16.094Z,8.88
2023-11-27T04:30:47.613Z,10.30
2023-11-27T04:33:16.913Z,11.10
2023-11-27T04:35:46.132Z,9.55
2023-11-27T04:38:14.678Z,9.30
2023-11-27T04:40:46.314Z,8.63
2023-11-27T04:43:15.718Z,8.95
2023-11-27T04:48:15.063Z,10.02
2023-11-27T04:50:45.119Z,8.63
2023-11-27T04:53:16.485Z,9.48
2023-11-27T04:55:44.541Z,10.07
2023-11-27T04:58:26.697Z,9.70
2023-11-27T05:00:54.816Z,10.02
2023-11-27T05:03:22.845Z,11.27
2023-11-27T05:05:51.908Z,10.48
2023-11-27T05:08:20.237Z,11.18
2023-11-27T05:10:50.539Z,11.07
2023-11-27T05:13:19.297Z,11.00
2023-11-27T05:15:48.843Z,12.13
2023-11-27T05:18:18.583Z,11.30
2023-11-27T05:20:47.038Z,12.75
2023-11-27T05:23:15.202Z,12.80
2023-11-27T05:25:43.953Z,11.68
2023-11-27T05:28:12.944Z,12.07
2023-11-27T05:30:41.046Z,12.40
2023-11-27T05:33:11.113Z,11.73
2023-11-27T05:36:03.056Z,11.60
2023-11-27T05:38:31.089Z,10.85
2023-11-27T05:41:02.232Z,11.98
2023-11-27T05:43:35.141Z,10.65
2023-11-27T05:46:11.407Z,11.95
2023-11-27T05:48:44.521Z,10.68
2023-11-27T05:51:12.694Z,11.50
2023-11-27T05:53:40.714Z,11.05
2023-11-27T05:56:11.202Z,10.63
2023-11-27T06:01:12.595Z,11.05
2023-11-27T06:03:46.626Z,11.35
2023-11-27T06:06:21.567Z,10.98
2023-11-27T06:08:51.241Z,10.25
2023-11-27T06:11:29.855Z,11.30
2023-11-27T06:13:58.081Z,11.82
2023-11-27T06:16:30.701Z,12.10
2023-11-27T06:19:11.606Z,11.27
2023-11-27T06:21:51.038Z,12.68
2023-11-27T06:24:20.107Z,11.60
2023-11-27T06:26:49.148Z,11.38
2023-11-27T06:29:41.384Z,11.57
2023-11-27T06:32:11.674Z,10.77
2023-11-27T06:34:42.032Z,12.00
2023-11-27T06:37:10.233Z,11.40
2023-11-27T06:39:40.702Z,11.18
2023-11-27T06:42:34.868Z,10.75
2023-11-27T06:45:18.938Z,9.90
2023-11-27T06:48:02.937Z,11.13
2023-11-27T06:50:38.505Z,11.43
2023-11-27T06:53:13.669Z,10.88
2023-11-27T06:55:41.739Z,11.10
2023-11-27T06:58:09.881Z,11.35
2023-11-27T07:00:39.453Z,11.73
2023-11-27T07:03:09.945Z,10.85
2023-11-27T07:05:42.394Z,10.13
2023-11-27T07:08:10.547Z,10.60
2023-11-27T07:10:40.453Z,9.85
2023-11-27T07:13:11.860Z,9.85
2023-11-27T07:15:39.995Z,9.23
2023-11-27T07:18:16.791Z,9.00
2023-11-27T07:20:58.776Z,8.98
2023-11-27T07:23:28.174Z,9.23
2023-11-27T07:28:29.068Z,7.68
2023-11-27T07:31:02.928Z,8.30
2023-11-27T07:33:31.073Z,7.57
2023-11-27T07:36:01.967Z,8.15
2023-11-27T07:38:41.118Z,8.80
2023-11-27T07:41:10.052Z,8.17
2023-11-27T07:43:38.776Z,9.05
2023-11-27T07:46:12.348Z,8.27
2023-11-27T07:48:43.333Z,8.60
2023-11-27T07:51:13.374Z,8.75
2023-11-27T07:53:41.960Z,8.60
2023-11-27T07:56:12.278Z,8.45
2023-11-27T07:58:42.414Z,8.43
2023-11-27T08:01:15.177Z,8.35
2023-11-27T08:03:47.259Z,8.98
2023-11-27T08:06:21.343Z,8.20
2023-11-27T08:08:55.228Z,7.80
2023-11-27T08:11:32.351Z,9.40
2023-11-27T08:14:00.777Z,9.35
2023-11-27T08:16:33.686Z,8.50
2023-11-27T08:19:03.755Z,9.95
2023-11-27T08:21:33.876Z,8.70
2023-11-27T08:24:02.013Z,9.18
2023-11-27T08:26:41.216Z,8.82
2023-11-27T08:29:09.782Z,8.88
2023-11-27T08:31:38.381Z,9.75
2023-11-27T08:34:07.599Z,9.18
2023-11-27T08:36:40.596Z,10.60
2023-11-27T08:39:13.446Z,10.07
2023-11-27T08:41:41.687Z,9.07
2023-11-27T08:44:10.353Z,9.50
2023-11-27T08:46:38.600Z,8.77
2023-11-27T08:49:13.989Z,8.65
2023-11-27T08:51:50.032Z,9.25
2023-11-27T08:54:20.384Z,9.77
2023-11-27T08:56:57.339Z,9.20
2023-11-27T08:59:26.420Z,9.70
2023-11-27T09:01:57.646Z,9.63
2023-11-27T09:04:28.846Z,9.85
2023-11-27T09:06:58.885Z,13.35
2023-11-27T09:09:27.038Z,9.25
2023-11-27T09:11:55.966Z,8.45
2023-11-27T09:14:24.002Z,8.45
2023-11-27T09:16:56.767Z,7.72
2023-11-27T09:19:28.359Z,8.95
2023-11-27T09:21:58.013Z,7.60
2023-11-27T09:24:28.342Z,8.18
2023-11-27T09:26:57.337Z,8.50
2023-11-27T09:29:25.456Z,8.67
2023-11-27T09:31:56.678Z,8.27
2023-11-27T09:34:29.202Z,8.25
2023-11-27T09:37:02.859Z,7.93
2023-11-27T09:39:39.906Z,8.27
2023-11-27T09:42:09.727Z,7.63
2023-11-27T09:44:38.285Z,7.68
2023-11-27T09:47:14.409Z,7.40
2023-11-27T09:49:52.539Z,7.90
2023-11-27T09:52:28.966Z,8.35
2023-11-27T09:55:06.951Z,7.80
2023-11-27T09:57:47.852Z,7.25
2023-11-27T10:00:20.093Z,8.13
2023-11-27T10:02:53.227Z,7.43
2023-11-27T10:05:26.137Z,6.95
2023-11-27T10:08:01.674Z,7.25
2023-11-27T10:10:37.781Z,7.68
2023-11-27T10:13:32.664Z,6.90
2023-11-27T10:16:10.538Z,7.10
2023-11-27T10:18:39.594Z,6.88
2023-11-27T10:21:11.515Z,7.05
2023-11-27T10:23:43.517Z,7.55
2023-11-27T10:26:14.280Z,7.22
2023-11-27T10:29:04.532Z,6.65
2023-11-27T10:31:39.353Z,6.65
2023-11-27T10:34:12.298Z,6.40
2023-11-27T10:36:40.669Z,6.32
2023-11-27T10:39:16.776Z,6.07
2023-11-27T10:41:47.747Z,6.50
2023-11-27T10:44:19.267Z,6.65
2023-11-27T10:46:48.529Z,6.50
2023-11-27T10:49:19.304Z,6.60
2023-11-27T10:51:48.964Z,6.68
2023-11-27T10:54:18.409Z,6.45
2023-11-27T10:56:50.252Z,6.80
2023-11-27T10:59:23.210Z,6.78
2023-11-27T11:02:00.021Z,6.20
2023-11-27T11:04:36.618Z,5.82
2023-11-27T11:07:10.990Z,6.13
2023-11-27T11:09:45.721Z,7.07
2023-11-27T11:12:20.261Z,6.75
2023-11-27T11:14:49.615Z,6.10
2023-11-27T11:17:31.045Z,5.60
2023-11-27T11:20:15.016Z,6.32
2023-11-27T11:22:57.339Z,6.18
2023-11-27T11:25:33.141Z,6.13
2023-11-27T11:28:13.329Z,6.05
2023-11-27T11:30:41.737Z,5.97
2023-11-27T11:33:20.102Z,5.78
2023-11-27T11:35:52.145Z,6.45
2023-11-27T11:38:27.691Z,5.90
2023-11-27T11:40:56.036Z,6.32
2023-11-27T11:43:27.979Z,5.82
2023-11-27T11:45:58.280Z,5.65
2023-11-27T11:48:38.738Z,5.72
2023-11-27T11:51:16.881Z,6.03
2023-11-27T11:53:49.410Z,6.07
2023-11-27T11:56:27.199Z,6.45
2023-11-27T11:59:01.836Z,5.88
2023-11-27T12:01:33.863Z,5.43
2023-11-27T12:04:07.446Z,5.53
2023-11-27T12:06:36.715Z,5.65
2023-11-27T12:09:05.255Z,6.53
2023-11-27T12:11:36.253Z,5.77
2023-11-27T12:14:33.887Z,6.03
2023-11-27T12:17:03.677Z,7.03
2023-11-27T12:19:34.365Z,5.97
2023-11-27T12:22:06.326Z,6.65
2023-11-27T12:24:34.396Z,6.53
2023-11-27T12:27:08.146Z,6.03
2023-11-27T12:29:40.356Z,6.13
2023-11-27T12:32:10.427Z,5.95
2023-11-27T12:34:42.199Z,6.13
2023-11-27T12:37:11.597Z,6.55
2023-11-27T12:39:39.780Z,5.65
2023-11-27T12:42:15.669Z,5.85
2023-11-27T12:44:51.232Z,6.32
2023-11-27T12:47:22.905Z,5.75
2023-11-27T12:49:54.350Z,5.55
2023-11-27T12:52:25.563Z,5.28
2023-11-27T12:54:56.852Z,5.43
2023-11-27T12:57:27.347Z,5.80
2023-11-27T12:59:58.661Z,5.38
2023-11-27T13:02:32.258Z,5.65
2023-11-27T13:05:00.884Z,5.18
2023-11-27T13:07:28.991Z,5.18
2023-11-27T13:10:08.669Z,4.97
2023-11-27T13:12:37.100Z,5.93
2023-11-27T13:15:11.682Z,5.60
2023-11-27T13:17:40.844Z,5.13
2023-11-27T13:20:19.254Z,5.10
2023-11-27T13:22:47.455Z,5.00
2023-11-27T13:25:17.027Z,5.15
2023-11-27T13:27:48.347Z,4.95
2023-11-27T13:30:29.156Z,5.10
2023-11-27T13:33:00.347Z,4.70
2023-11-27T13:35:33.844Z,4.97
2023-11-27T13:38:06.550Z,5.43
2023-11-27T13:40:36.749Z,5.93
2023-11-27T13:43:15.912Z,5.90
2023-11-27T13:45:52.669Z,5.50
2023-11-27T13:48:24.160Z,5.28
2023-11-27T13:50:58.670Z,4.82
2023-11-27T13:53:28.044Z,5.03
2023-11-27T13:56:04.467Z,5.10
2023-11-27T13:58:46.145Z,5.32
2023-11-27T14:01:20.457Z,4.43
2023-11-27T14:04:00.163Z,5.20
2023-11-27T14:06:29.961Z,4.80
2023-11-27T14:09:05.214Z,5.20
2023-11-27T14:11:35.921Z,5.72
2023-11-27T14:14:09.459Z,5.53
2023-11-27T14:17:16.233Z,5.25
2023-11-27T14:20:01.891Z,6.70
2023-11-27T14:23:01.679Z,6.90
2023-11-27T14:25:51.230Z,7.38
2023-11-27T14:28:32.313Z,8.43
2023-11-27T14:31:03.715Z,7.15
2023-11-27T14:33:35.824Z,7.47
2023-11-27T14:36:05.246Z,7.63
2023-11-27T14:38:33.479Z,7.97
2023-11-27T14:41:02.028Z,7.90
2023-11-27T14:43:34.274Z,7.85
2023-11-27T14:46:13.583Z,8.18
2023-11-27T14:48:44.788Z,7.03
2023-11-27T14:51:12.904Z,7.78
2023-11-27T14:53:54.013Z,7.72
2023-11-27T14:56:29.582Z,6.93
2023-11-27T14:59:09.230Z,8.07
2023-11-27T15:01:44.045Z,7.75
2023-11-27T15:04:17.327Z,7.35
2023-11-27T15:06:47.521Z,8.15
2023-11-27T15:09:23.593Z,8.52
2023-11-27T15:11:55.194Z,7.82
2023-11-27T15:14:24.899Z,7.70
2023-11-27T15:16:56.158Z,7.82
2023-11-27T15:19:28.990Z,8.13
2023-11-27T15:21:59.459Z,9.40
2023-11-27T15:24:38.497Z,10.00
2023-11-27T15:27:08.431Z,9.13
2023-11-27T15:32:09.210Z,8.07
2023-11-27T15:34:43.071Z,9.27
2023-11-27T15:37:11.322Z,9.43
2023-11-27T15:39:47.379Z,10.68
2023-11-27T15:45:00.755Z,8.98
2023-11-27T15:47:29.422Z,10.50
2023-11-27T15:50:01.986Z,10.27
2023-11-27T15:52:47.834Z,10.13
2023-11-27T15:55:38.969Z,9.77
2023-11-27T15:58:07.659Z,10.95
2023-11-27T16:00:43.436Z,11.07
2023-11-27T16:03:18.465Z,10.00
2023-11-27T16:05:50.417Z,10.68
2023-11-27T16:08:19.720Z,10.30
2023-11-27T16:10:52.273Z,10.45
2023-11-27T16:13:23.163Z,10.70
2023-11-27T16:15:56.014Z,10.75
2023-11-27T16:18:40.664Z,10.02
2023-11-27T16:21:16.343Z,9.18
2023-11-27T16:23:45.262Z,10.20
2023-11-27T16:26:13.519Z,10.52
2023-11-27T16:28:43.728Z,10.27
2023-11-27T16:31:14.009Z,10.60
2023-11-27T16:33:42.123Z,10.20
2023-11-27T16:36:14.304Z,10.40
2023-11-27T16:38:42.406Z,10.80
2023-11-27T16:41:10.482Z,10.27
2023-11-27T16:43:45.928Z,10.43
2023-11-27T16:46:15.055Z,10.88
2023-11-27T16:48:43.341Z,11.80
2023-11-27T16:51:13.966Z,12.23
2023-11-27T16:53:42.171Z,12.05
2023-11-27T16:56:11.108Z,12.10
2023-11-27T16:58:40.094Z,13.25
2023-11-27T17:01:08.226Z,12.80
2023-11-27T17:03:38.657Z,11.48
2023-11-27T17:06:10.280Z,12.52
2023-11-27T17:08:39.832Z,12.20
2023-11-27T17:11:09.185Z,11.68
2023-11-27T17:16:08.081Z,9.75
2023-11-27T17:18:36.790Z,10.18
2023-11-27T17:21:06.579Z,9.75
2023-11-27T17:26:07.001Z,8.88
2023-11-27T17:28:35.217Z,10.43
2023-11-27T17:31:03.402Z,9.70
2023-11-27T17:33:33.026Z,10.27
2023-11-27T17:36:01.077Z,10.10
2023-11-27T17:38:35.554Z,10.57
2023-11-27T17:41:06.099Z,9.55
2023-11-27T17:43:35.175Z,10.95
2023-11-27T17:46:04.422Z,10.48
2023-11-27T17:48:33.386Z,9.93
2023-11-27T17:51:01.684Z,9.95
2023-11-27T17:53:30.856Z,10.05
2023-11-27T17:56:04.596Z,10.38
2023-11-27T17:58:35.993Z,9.95
2023-11-27T18:01:06.879Z,10.90
2023-11-27T18:03:36.793Z,11.10
2023-11-27T18:06:05.309Z,10.45
2023-11-27T18:11:07.384Z,10.40
2023-11-27T18:13:40.889Z,10.23
2023-11-27T18:16:11.569Z,10.27
2023-11-27T18:18:40.942Z,10.50
2023-11-27T18:21:09.784Z,10.60
2023-11-27T18:23:38.485Z,10.80
2023-11-27T18:26:10.052Z,9.88
2023-11-27T18:28:39.661Z,10.43
2023-11-27T18:31:08.247Z,8.20
2023-11-27T18:33:40.304Z,8.10
2023-11-27T18:36:13.081Z,7.55
2023-11-27T18:38:43.324Z,7.90
2023-11-27T18:41:11.597Z,8.15
2023-11-27T18:43:42.195Z,7.65
2023-11-27T18:46:11.011Z,6.70
2023-11-27T18:48:39.041Z,6.65
2023-11-27T18:51:07.912Z,6.38
2023-11-27T18:53:36.771Z,6.55
2023-11-27T18:56:06.160Z,6.83
2023-11-27T18:58:34.603Z,6.18
2023-11-27T19:01:10.676Z,7.03
2023-11-27T19:03:38.771Z,7.65
2023-11-27T19:06:08.055Z,7.85
2023-11-27T19:08:37.587Z,7.93
2023-11-27T19:11:08.770Z,8.25
2023-11-27T19:13:37.531Z,8.90
2023-11-27T19:16:12.832Z,9.05
2023-11-27T19:18:45.118Z,8.93
2023-11-27T19:21:16.675Z,8.27
2023-11-27T19:23:45.909Z,9.75
2023-11-27T19:26:16.422Z,8.02
2023-11-27T19:28:49.121Z,7.20
2023-11-27T19:31:32.662Z,7.75
2023-11-27T19:34:04.290Z,7.43
2023-11-27T19:36:32.650Z,7.68
2023-11-27T19:39:08.360Z,7.40
2023-11-27T19:41:39.263Z,6.72
2023-11-27T19:44:18.565Z,7.20
2023-11-27T19:46:50.242Z,5.90
2023-11-27T19:49:23.011Z,6.90
2023-11-27T19:51:52.295Z,6.90
2023-11-27T19:54:21.116Z,5.68
2023-11-27T19:56:49.356Z,5.38
2023-11-27T19:59:17.484Z,4.95
2023-11-27T20:01:47.533Z,5.47
2023-11-27T20:04:15.764Z,5.00
2023-11-27T20:06:47.840Z,5.03
2023-11-27T20:09:16.946Z,4.90
2023-11-27T20:11:45.708Z,5.47
2023-11-27T20:14:16.436Z,5.72
2023-11-27T20:16:45.065Z,5.57
2023-11-27T20:19:16.196Z,5.55
2023-11-27T20:21:44.941Z,5.18
2023-11-27T20:24:13.596Z,4.65
2023-11-27T20:29:48.951Z,5.07
2023-11-27T20:32:17.619Z,5.32
2023-11-27T20:34:47.279Z,5.10
2023-11-27T20:37:16.031Z,5.63
2023-11-27T20:39:46.296Z,5.28
2023-11-27T20:42:15.036Z,5.95
2023-11-27T20:44:56.054Z,5.10
2023-11-27T20:47:28.342Z,4.85
2023-11-27T20:49:58.311Z,5.05
2023-11-27T20:52:28.039Z,5.25
2023-11-27T20:55:05.896Z,5.38
2023-11-27T20:57:37.571Z,4.85
2023-11-27T21:00:24.089Z,5.35
2023-11-27T21:02:56.083Z,5.65
2023-11-27T21:05:49.782Z,6.10
2023-11-27T21:08:22.556Z,4.93
2023-11-27T21:11:09.679Z,5.80
2023-11-27T21:13:38.391Z,5.68
2023-11-27T21:16:07.283Z,6.00
2023-11-27T21:19:10.217Z,7.17
2023-11-27T21:21:45.842Z,6.55
2023-11-27T21:24:19.302Z,6.82
2023-11-27T21:26:47.384Z,6.60
2023-11-27T21:29:15.416Z,6.72
2023-11-27T21:32:07.563Z,6.32
2023-11-27T21:34:51.210Z,6.40
2023-11-27T21:37:27.743Z,5.95
2023-11-27T21:40:46.862Z,6.13
2023-11-27T21:43:15.957Z,5.35
2023-11-27T21:46:01.602Z,5.43
2023-11-27T21:48:56.697Z,5.30
2023-11-27T21:51:25.853Z,4.28
2023-11-27T21:53:55.405Z,5.10
2023-11-27T22:00:10.956Z,4.70
2023-11-27T22:05:53.960Z,5.30
2023-11-27T22:08:30.569Z,4.57
2023-11-27T22:11:00.086Z,4.63
2023-11-27T22:13:28.263Z,4.85
2023-11-27T22:15:58.777Z,4.93
2023-11-27T22:18:26.812Z,4.47
2023-11-27T22:20:55.720Z,4.72
2023-11-27T22:24:17.014Z,4.50
2023-11-27T22:29:48.184Z,4.38
2023-11-27T22:32:34.185Z,4.57
2023-11-27T22:41:13.777Z,4.43
2023-11-27T22:44:33.728Z,4.28
2023-11-27T22:53:17.712Z,4.30
2023-11-27T22:56:22.102Z,3.50
2023-11-27T22:59:16.518Z,3.00
2023-11-27T23:02:14.614Z,3.60
2023-11-27T23:05:01.127Z,3.33
2023-11-27T23:08:09.161Z,3.47
2023-11-27T23:23:14.042Z,2.58
2023-11-27T23:31:14.382Z,2.10
2023-11-27T23:34:39.192Z,2.22
2023-11-27T23:37:34.140Z,2.47
2023-11-27T23:40:16.307Z,2.03
2023-11-27T23:46:00.156Z,2.50
2023-11-27T23:48:56.513Z,2.38
2023-11-27T23:52:14.787Z,2.50
2023-11-27T23:55:10.935Z,2.15
2023-11-27T23:57:42.823Z,2.67
